METAR Data
IDs: Format: Raw Decoded Include TAF

Data at: 0137 UTC 24 Sep 2018

KAIZ 240056Z AUTO 00000KT 10SM OVC043 22/18 A3000 RMK AO2 SLP155 T02170178
KAIZ 232356Z AUTO 12003KT 10SM OVC039 22/18 A3000 RMK AO2 SLP155 T02220178 10250 20222 56003
KAIZ 232256Z AUTO 12005KT 10SM SCT033 OVC045 23/17 A3000 RMK AO2 SLP154 T02330172
KAIZ 232156Z AUTO 11007KT 10SM FEW035 OVC045 24/17 A3000 RMK AO2 SLP153 T02390172
KAIZ 232056Z AUTO 09006KT 10SM SCT035 BKN043 24/17 A3001 RMK AO2 SLP155 T02390167 56026
KAIZ 231956Z AUTO 08007KT 10SM BKN033 24/17 A3003 RMK AO2 SLP163 T02390167
KAIZ 231856Z AUTO 10008KT 10SM BKN033 OVC042 24/16 A3006 RMK AO2 SLP172 T02390161
KAIZ 231756Z AUTO 06009KT 10SM OVC033 23/16 A3008 RMK AO2 SLP182 60000 T02280161 10228 20111 58012
KAIZ 231734Z AUTO 10004KT 10SM SCT030 OVC035 22/16 A3009 RMK AO2
KAIZ 231720Z AUTO 11005KT 10SM BKN027 OVC036 22/16 A3010 RMK AO2
KAIZ 231656Z AUTO 06009KT 10SM FEW025 BKN034 22/16 A3011 RMK AO2 SLP189 T02220161
KAIZ 231456Z AUTO VRB04KT 10SM FEW009 17/14 A3012 RMK AO2 SLP196 60000 T01670144 53004
KAIZ 231400Z AUTO 05008KT 9SM SCT003 14/14 A3011 RMK AO2
KAIZ 231356Z AUTO 06006KT 9SM BKN001 14/13 A3011 RMK AO2 RAE23 SLP194 P0000 T01390133
KAIZ 231334Z AUTO 04006KT 3SM BR OVC001 13/13 A3011 RMK AO2 RAE23 P0000
KAIZ 231327Z AUTO 05004KT 1 1/4SM BR OVC001 13/13 A3011 RMK AO2 RAE23 P0000
KAIZ 231323Z AUTO 04003KT 3/4SM BR OVC001 12/12 A3011 RMK AO2 RAE23 P0000
KAIZ 231256Z AUTO 06003KT 1/4SM -RA FG OVC001 12/12 A3011 RMK AO2 SLP193 P0000 T01170117
KAIZ 231156Z AUTO 04003KT 1/4SM -RA FG OVC001 11/11 A3011 RMK AO2 RAB28 SLP194 P0000 60000 T01110111 10133 20111 51005
KAIZ 231123Z AUTO 06005KT 1/2SM FG BKN001 OVC033 11/11 A3010 RMK AO2
KAIZ 231120Z AUTO 06005KT 1SM BR BKN001 BKN033 11/11 A3010 RMK AO2
KAIZ 231117Z AUTO 06004KT 2 1/2SM BR BKN001 BKN033 11/11 A3010 RMK AO2
KAIZ 231108Z AUTO 05003KT 10SM SCT001 BKN033 11/11 A3010 RMK AO2
KAIZ 231056Z AUTO 04004KT 3SM BR BKN001 11/11 A3009 RMK AO2 SLP187 T01110111
KAIZ 231052Z AUTO 04003KT 1 3/4SM BR BKN001 11/11 A3009 RMK AO2
KAIZ 231034Z AUTO 07003KT 1SM BR BKN001 OVC033 12/11 A3009 RMK AO2
KAIZ 231029Z AUTO 07003KT 2SM BR BKN001 OVC033 11/11 A3009 RMK AO2 VIS 1 1/4V5
KAIZ 231026Z AUTO 07003KT 3SM BR SCT001 BKN033 12/11 A3009 RMK AO2
KAIZ 230956Z AUTO 06003KT 10SM SCT033 12/12 A3009 RMK AO2 SLP187 T01170117
KAIZ 230856Z AUTO 00000KT 10SM FEW033 12/12 A3010 RMK AO2 SLP187 T01220117 58004
KAIZ 230756Z AUTO 00000KT 10SM CLR 12/12 A3010 RMK AO2 SLP190 T01170117
KAIZ 230656Z AUTO 00000KT 10SM CLR 12/12 A3011 RMK AO2 SLP192 T01220122
KAIZ 230556Z AUTO 00000KT 10SM CLR 13/13 A3011 RMK AO2 SLP193 T01330128 10200 20128 402280128 58007
KAIZ 230456Z AUTO 12003KT 10SM CLR 14/13 A3012 RMK AO2 SLP197 T01440133
KAIZ 230356Z AUTO 10003KT 10SM CLR 15/14 A3014 RMK AO2 SLP201 T01500139 TSNO
KAIZ 230256Z AUTO 00000KT 10SM CLR 16/14 A3013 RMK AO2 SLP201 T01610139 51005
KAIZ 230224Z AUTO 09003KT 10SM CLR 17/14 A3013 RMK AO2
KAIZ 230214Z AUTO 00000KT 2 1/2SM BR CLR 16/14 A3014 RMK AO2
KAIZ 230156Z AUTO 09003KT 10SM CLR 17/14 A3013 RMK AO2 SLP201 T01720139
KAIZ 230153Z AUTO 09003KT 2SM HZ CLR 17/14 A3013 RMK AO2
KAIZ 230056Z AUTO 07003KT 10SM CLR 17/14 A3011 RMK AO2 SLP196 T01720144
KAIZ 222356Z AUTO 07004KT 10SM CLR 20/14 A3012 RMK AO2 SLP195 T02000139 10228 20200 58008
KAIZ 222256Z AUTO 08006KT 10SM CLR 22/14 A3013 RMK AO2 SLP197 T02220139
KAIZ 222156Z AUTO 05008KT 10SM CLR 23/14 A3013 RMK AO2 SLP198 T02280139
KAIZ 222056Z AUTO 06005KT 10SM CLR 23/13 A3014 RMK AO2 SLP200 T02280133 56022
KAIZ 221956Z AUTO 05005KT 10SM CLR 22/12 A3016 RMK AO2 SLP208 T02170122
KAIZ 221856Z AUTO 03004KT 10SM CLR 21/12 A3019 RMK AO2 SLP216 T02110122
KAIZ 221756Z AUTO VRB06KT 10SM CLR 20/13 A3021 RMK AO2 SLP224 T02000128 10200 20139 58012
KAIZ 221656Z AUTO 06007KT 10SM CLR 19/12 A3023 RMK AO2 SLP232 T01890122
KAIZ 221556Z AUTO 11006KT 10SM CLR 18/11 A3025 RMK AO2 SLP238 T01780111
KAIZ 221456Z AUTO 06007KT 10SM CLR 16/11 A3025 RMK AO2 SLP238 T01560106 51001
KAIZ 221356Z AUTO 04008KT 10SM CLR 14/11 A3024 RMK AO2 SLP238 T01390106